Time;durP1;ratioP1;P1;durP2;ratioP2;P2;SDS_P1;SDS_P2;PMS_P1;PMS_P2;Temp;Humidity;BMP_temperature;BMP_pressure;BME280_temperature;BME280_humidity;BME280_pressure;Samples;Min_cycle;Max_cycle;Signal;HPM_P1;HPM_P2
2022/02/12 00:02:25;;;;;;;0.53;0.53;;;;;;;0.31;95.50;102762.28;5035750;28;20856;-72
2022/02/12 00:04:51;;;;;;;0.40;0.30;;;;;;;0.22;96.24;102749.06;5035934;28;20451;-73
2022/02/12 00:07:18;;;;;;;0.40;0.30;;;;;;;0.19;96.35;102751.25;5035302;28;20830;-73
2022/02/12 00:09:45;;;;;;;0.40;0.30;;;;;;;0.09;97.42;102739.97;5036120;28;20450;-73
2022/02/12 00:12:12;;;;;;;0.40;0.30;;;;;;;0.16;96.47;102741.75;5036152;28;20450;-73
2022/02/12 00:14:38;;;;;;;0.40;0.30;;;;;;;0.09;96.03;102746.16;5036106;28;20816;-73
2022/02/12 00:17:05;;;;;;;0.40;0.30;;;;;;;0.01;97.13;102750.72;5036242;28;20477;-73
2022/02/12 00:19:31;;;;;;;0.40;0.30;;;;;;;0.11;96.87;102756.63;5035873;28;20451;-73
2022/02/12 00:21:57;;;;;;;0.40;0.30;;;;;;;0.20;96.11;102763.56;5035658;28;20451;-73
2022/02/12 00:24:24;;;;;;;0.40;0.30;;;;;;;0.13;96.89;102759.94;5036183;28;20522;-73
2022/02/12 00:26:52;;;;;;;0.40;0.30;;;;;;;0.02;98.40;102755.03;5035503;28;20980;-77
2022/02/12 00:29:18;;;;;;;0.40;0.20;;;;;;;0.03;98.68;102762.84;5036251;28;20549;-77
2022/02/12 00:31:45;;;;;;;0.40;0.30;;;;;;;-0.01;98.96;102766.84;5036434;28;20505;-77
2022/02/12 00:34:11;;;;;;;0.40;0.30;;;;;;;-0.04;99.53;102767.22;5037058;28;20823;-77
2022/02/12 00:36:38;;;;;;;0.40;0.30;;;;;;;-0.01;99.25;102765.03;5036890;28;20984;-77
2022/02/12 00:39:04;;;;;;;0.40;0.30;;;;;;;0.08;98.21;102765.78;5037643;28;20451;-78
2022/02/12 00:41:31;;;;;;;0.40;0.30;;;;;;;0.22;97.88;102773.03;5037217;28;20451;-77
2022/02/12 00:43:59;;;;;;;0.40;0.30;;;;;;;0.28;96.97;102773.34;5037196;28;20853;-78
2022/02/12 00:46:25;;;;;;;0.40;0.30;;;;;;;0.25;96.92;102774.50;5036957;28;20448;-77
2022/02/12 00:48:51;;;;;;;0.40;0.30;;;;;;;0.08;96.66;102776.44;5037211;28;20494;-77
2022/02/12 00:51:18;;;;;;;0.40;0.30;;;;;;;-0.01;96.70;102769.53;5035984;28;20949;-77
2022/02/12 00:53:44;;;;;;;0.40;0.30;;;;;;;0.02;96.84;102769.19;5035441;28;20446;-77
2022/02/12 00:56:11;;;;;;;0.40;0.20;;;;;;;-0.14;96.80;102766.59;5035258;28;20824;-76
2022/02/12 00:58:37;;;;;;;0.40;0.30;;;;;;;-0.23;97.46;102775.66;5035961;28;20448;-77
2022/02/12 01:01:05;;;;;;;0.40;0.30;;;;;;;-0.20;96.21;102786.78;5035507;28;21054;-77
2022/02/12 01:03:32;;;;;;;0.40;0.30;;;;;;;-0.16;95.89;102784.59;5035212;28;20826;-77
2022/02/12 01:05:58;;;;;;;0.40;0.30;;;;;;;-0.22;95.67;102775.50;5035993;28;20476;-77
2022/02/12 01:08:25;;;;;;;0.40;0.30;;;;;;;-0.09;96.01;102774.91;5037668;28;20490;-77
2022/02/12 01:10:51;;;;;;;0.40;0.30;;;;;;;-0.12;95.46;102770.75;5037268;28;20444;-77
2022/02/12 01:13:18;;;;;;;0.40;0.20;;;;;;;-0.16;95.18;102784.59;5036861;28;20448;-78
2022/02/12 01:15:44;;;;;;;0.40;0.30;;;;;;;-0.21;95.48;102786.97;5036332;28;20478;-77
2022/02/12 01:18:12;;;;;;;0.40;0.30;;;;;;;-0.16;95.08;102784.59;5037345;28;20463;-77
2022/02/12 01:20:39;;;;;;;0.40;0.30;;;;;;;-0.16;94.81;102790.75;5036713;28;20436;-77
2022/02/12 01:23:06;;;;;;;0.40;0.30;;;;;;;-0.14;94.79;102795.91;5036662;28;20454;-77
2022/02/12 01:25:33;;;;;;;0.40;0.30;;;;;;;-0.30;94.54;102789.69;5035759;28;20964;-77
2022/02/12 01:27:59;;;;;;;0.40;0.30;;;;;;;-0.26;95.36;102795.50;5036962;28;20490;-78
2022/02/12 01:30:26;;;;;;;0.40;0.30;;;;;;;-0.23;96.68;102794.28;5037134;28;20450;-78
2022/02/12 01:32:53;;;;;;;0.40;0.30;;;;;;;-0.22;97.21;102791.47;5037932;28;20451;-79
2022/02/12 01:35:23;;;;;;;0.40;0.30;;;;;;;-0.15;96.83;102791.59;5038137;28;20436;-78
2022/02/12 01:37:50;;;;;;;0.40;0.30;;;;;;;-0.23;96.36;102794.28;5036295;28;20562;-77
2022/02/12 01:40:16;;;;;;;0.40;0.30;;;;;;;-0.29;96.25;102791.31;5036808;28;20447;-78
2022/02/12 01:42:43;;;;;;;0.40;0.30;;;;;;;-0.21;96.18;102798.44;5035897;28;20826;-77
2022/02/12 01:45:10;;;;;;;0.40;0.30;;;;;;;-0.08;96.09;102795.22;5036074;28;20968;-77
2022/02/12 01:47:36;;;;;;;0.40;0.30;;;;;;;-0.10;95.71;102799.88;5035758;28;20471;-77
2022/02/12 01:50:03;;;;;;;0.40;0.30;;;;;;;-0.17;95.94;102804.25;5036144;28;20487;-77
2022/02/12 01:52:31;;;;;;;0.40;0.30;;;;;;;-0.03;96.64;102800.84;5036327;28;20844;-77
2022/02/12 01:54:57;;;;;;;0.40;0.30;;;;;;;-0.01;97.05;102796.16;5036100;28;20534;-77
2022/02/12 01:57:24;;;;;;;0.40;0.30;;;;;;;-0.05;97.38;102795.69;5035532;28;20502;-77
2022/02/12 01:59:50;;;;;;;0.40;0.30;;;;;;;0.08;98.17;102800.44;5034946;28;20454;-75
2022/02/12 02:02:17;;;;;;;0.40;0.30;;;;;;;0.13;98.27;102811.38;5033679;28;20940;-75
2022/02/12 02:04:44;;;;;;;0.40;0.30;;;;;;;0.17;98.03;102806.53;5034251;28;20443;-75
2022/02/12 02:07:10;;;;;;;0.40;0.30;;;;;;;0.19;98.92;102818.69;5033893;28;20482;-75
2022/02/12 02:09:38;;;;;;;0.40;0.30;;;;;;;0.30;99.17;102822.78;5033917;28;20577;-75
2022/02/12 02:12:05;;;;;;;0.40;0.30;;;;;;;0.35;98.98;102811.56;5033845;28;20451;-75
2022/02/12 02:14:32;;;;;;;0.40;0.30;;;;;;;0.31;97.91;102813.78;5033539;28;20505;-75
2022/02/12 02:16:58;;;;;;;0.40;0.30;;;;;;;0.33;99.05;102806.44;5033782;28;20459;-76
2022/02/12 02:19:25;;;;;;;0.40;0.30;;;;;;;0.34;98.76;102808.09;5033499;28;20972;-76
2022/02/12 02:21:54;;;;;;;0.40;0.30;;;;;;;0.38;99.26;102803.22;5033419;28;20454;-76
2022/02/12 02:24:22;;;;;;;0.40;0.30;;;;;;;0.42;99.33;102813.34;5033515;28;20446;-75
2022/02/12 02:26:48;;;;;;;0.40;0.30;;;;;;;0.41;98.74;102814.38;5033644;28;20459;-76
2022/02/12 02:29:15;;;;;;;0.40;0.30;;;;;;;0.41;99.38;102810.88;5033350;28;20895;-76
2022/02/12 02:31:41;;;;;;;0.40;0.40;;;;;;;0.38;99.30;102800.56;5033048;28;20455;-75
2022/02/12 02:34:08;;;;;;;37.07;24.50;;;;;;;0.41;99.62;102808.22;5033505;28;20473;-75
2022/02/12 02:36:35;;;;;;;0.40;0.30;;;;;;;0.38;100.00;102803.22;5033068;28;20499;-75
2022/02/12 02:39:03;;;;;;;0.63;0.60;;;;;;;0.44;100.00;102808.69;5033486;28;20439;-75
2022/02/12 02:41:31;;;;;;;0.40;0.30;;;;;;;0.47;99.71;102802.16;5033462;28;20447;-75
2022/02/12 02:43:57;;;;;;;2.20;2.10;;;;;;;0.47;100.00;102797.66;5033396;28;20459;-76
2022/02/12 02:46:23;;;;;;;0.40;0.30;;;;;;;0.47;99.68;102808.31;5033253;28;20467;-77
2022/02/12 02:48:50;;;;;;;0.40;0.30;;;;;;;0.47;99.18;102810.16;5033559;28;20495;-77
2022/02/12 02:56:51;;;;;;;0.40;0.30;;;;;;;0.41;100.00;102813.53;4977392;28;20533;-76
2022/02/12 02:59:17;;;;;;;0.40;0.27;;;;;;;0.43;99.96;102806.19;5033381;28;20435;-76
2022/02/12 03:01:45;;;;;;;0.40;0.30;;;;;;;0.46;99.58;102813.84;5032284;28;20454;-76
2022/02/12 03:04:12;;;;;;;0.40;0.30;;;;;;;0.38;98.54;102804.06;5033321;28;20447;-76
2022/02/12 03:06:38;;;;;;;0.40;0.30;;;;;;;0.30;98.21;102808.63;5033109;28;20486;-76
2022/02/12 03:09:05;;;;;;;0.40;0.30;;;;;;;0.10;98.25;102810.94;5033172;28;20879;-76
2022/02/12 03:11:31;;;;;;;0.40;0.30;;;;;;;0.12;98.16;102799.06;5033260;28;20830;-76
2022/02/12 03:13:59;;;;;;;0.40;0.20;;;;;;;0.22;97.92;102806.81;5033150;28;20447;-76
2022/02/12 03:16:25;;;;;;;0.40;0.30;;;;;;;0.24;98.33;102807.50;5033274;28;20467;-74
2022/02/12 03:18:52;;;;;;;0.40;0.30;;;;;;;0.01;98.27;102807.47;5034485;28;20485;-75
2022/02/12 03:21:19;;;;;;;0.40;0.30;;;;;;;0.00;98.29;102808.50;5037095;28;20453;-75
2022/02/12 03:23:45;;;;;;;0.40;0.30;;;;;;;0.10;97.30;102816.25;5037048;28;20451;-75
2022/02/12 03:26:13;;;;;;;0.40;0.30;;;;;;;0.15;96.90;102825.38;5036885;28;20451;-75
2022/02/12 03:28:39;;;;;;;0.40;0.30;;;;;;;0.07;96.86;102819.25;5036919;28;20487;-75
2022/02/12 03:31:08;;;;;;;0.40;0.30;;;;;;;0.10;97.33;102813.59;5036931;28;20438;-75
2022/02/12 03:33:34;;;;;;;0.40;0.30;;;;;;;0.11;96.69;102818.75;5036898;28;20442;-75
2022/02/12 03:36:01;;;;;;;0.40;0.30;;;;;;;0.01;96.49;102818.13;5036781;28;20443;-75
2022/02/12 03:38:29;;;;;;;0.40;0.30;;;;;;;-0.08;96.17;102817.34;5036762;28;20451;-75
2022/02/12 03:40:58;;;;;;;0.57;0.57;;;;;;;-0.08;97.13;102808.53;5036460;28;20852;-75
2022/02/12 03:43:25;;;;;;;0.40;0.30;;;;;;;0.02;97.21;102814.47;5036705;28;20470;-75
2022/02/12 03:45:53;;;;;;;0.40;0.30;;;;;;;0.11;97.60;102816.06;5036631;28;20486;-74
2022/02/12 03:48:21;;;;;;;0.40;0.30;;;;;;;0.17;97.81;102814.53;5036317;28;20497;-76
2022/02/12 03:50:47;;;;;;;0.40;0.30;;;;;;;0.13;98.42;102811.38;5036467;28;20487;-73
2022/02/12 03:53:14;;;;;;;0.40;0.30;;;;;;;0.08;98.86;102807.59;5036743;28;20443;-73
2022/02/12 03:55:40;;;;;;;0.40;0.30;;;;;;;0.19;99.24;102809.88;5036473;28;20439;-73
2022/02/12 03:58:09;;;;;;;0.40;0.30;;;;;;;0.14;98.15;102809.56;5036336;28;20459;-73
2022/02/12 04:00:35;;;;;;;0.40;0.30;;;;;;;0.17;99.12;102810.03;5036378;28;20443;-73
2022/02/12 04:03:02;;;;;;;0.40;0.30;;;;;;;0.20;98.81;102812.34;5036280;28;20493;-73
2022/02/12 04:05:31;;;;;;;0.40;0.30;;;;;;;0.20;99.07;102800.88;5036261;28;20497;-73
2022/02/12 04:07:57;;;;;;;0.40;0.30;;;;;;;0.09;99.05;102802.13;5035908;28;20565;-73
2022/02/12 04:10:24;;;;;;;0.40;0.30;;;;;;;0.09;98.44;102804.78;5036094;28;20478;-73
2022/02/12 04:12:51;;;;;;;0.40;0.23;;;;;;;0.05;98.30;102790.16;5035870;28;20952;-73
2022/02/12 04:15:18;;;;;;;0.40;0.30;;;;;;;0.03;98.43;102794.81;5036053;28;20465;-72
2022/02/12 04:17:47;;;;;;;0.40;0.30;;;;;;;-0.01;98.51;102801.50;5035745;28;20521;-73
2022/02/12 04:20:15;;;;;;;0.40;0.30;;;;;;;0.09;98.33;102799.44;5036079;28;20431;-73
2022/02/12 04:22:43;;;;;;;0.40;0.30;;;;;;;0.10;97.59;102800.28;5035932;28;20446;-74
2022/02/12 04:25:13;;;;;;;0.40;0.30;;;;;;;0.12;97.83;102807.06;5035908;28;20443;-74
2022/02/12 04:27:39;;;;;;;0.40;0.30;;;;;;;0.12;98.51;102804.41;5036303;28;20463;-73
2022/02/12 04:30:08;;;;;;;0.40;0.30;;;;;;;0.03;97.85;102802.78;5034965;28;20494;-77
2022/02/12 04:32:35;;;;;;;0.40;0.30;;;;;;;0.03;98.33;102797.47;5035892;28;20443;-76
2022/02/12 04:35:02;;;;;;;7.93;4.67;;;;;;;0.04;97.70;102801.78;5036053;28;20458;-76
2022/02/12 04:37:29;;;;;;;0.40;0.30;;;;;;;0.13;98.09;102811.38;5035840;28;20458;-77
2022/02/12 04:39:57;;;;;;;0.40;0.30;;;;;;;0.05;97.87;102800.81;5035865;28;20443;-76
2022/02/12 04:42:23;;;;;;;0.40;0.30;;;;;;;0.04;98.03;102796.47;5035745;28;20452;-76
2022/02/12 04:44:51;;;;;;;0.40;0.30;;;;;;;0.03;98.35;102794.81;5035404;28;20447;-75
2022/02/12 04:47:19;;;;;;;0.40;0.30;;;;;;;0.09;98.72;102806.59;5035470;28;20467;-74
2022/02/12 04:49:46;;;;;;;0.40;0.30;;;;;;;0.05;98.98;102806.13;5035425;28;20490;-74
2022/02/12 04:52:15;;;;;;;0.40;0.30;;;;;;;0.05;98.81;102800.81;5035483;28;20455;-74
2022/02/12 04:54:42;;;;;;;0.40;0.30;;;;;;;0.03;99.16;102789.47;5035480;28;20857;-74
2022/02/12 04:57:10;;;;;;;0.40;0.30;;;;;;;0.08;98.87;102795.09;5035239;28;20467;-74
2022/02/12 04:59:37;;;;;;;0.40;0.30;;;;;;;0.13;98.68;102802.56;5035331;28;20439;-74
2022/02/12 05:02:04;;;;;;;0.40;0.30;;;;;;;0.11;98.34;102800.09;5035208;28;20434;-74
2022/02/12 05:04:31;;;;;;;0.40;0.30;;;;;;;0.13;98.38;102799.91;5035211;28;20447;-74
2022/02/12 05:06:58;;;;;;;0.40;0.30;;;;;;;0.11;98.36;102794.75;5034896;28;20475;-74
2022/02/12 05:09:24;;;;;;;0.40;0.30;;;;;;;0.06;98.93;102793.63;5035099;28;20499;-74
2022/02/12 05:11:51;;;;;;;0.40;0.30;;;;;;;0.12;98.90;102791.09;5035106;28;20451;-73
2022/02/12 05:14:20;;;;;;;0.40;0.30;;;;;;;0.09;99.12;102791.47;5035006;28;20478;-73
2022/02/12 05:16:47;;;;;;;0.40;0.30;;;;;;;0.09;99.03;102788.78;5034944;28;20891;-73
2022/02/12 05:19:14;;;;;;;0.40;0.30;;;;;;;0.02;97.40;102795.00;5034670;28;20932;-74
2022/02/12 05:21:41;;;;;;;0.40;0.30;;;;;;;-0.09;97.75;102785.56;5034922;28;20447;-74
2022/02/12 05:24:08;;;;;;;0.40;0.30;;;;;;;-0.07;98.02;102789.72;5034756;28;20487;-74
2022/02/12 05:26:34;;;;;;;0.40;0.30;;;;;;;-0.06;97.79;102785.22;5034370;28;21031;-74
2022/02/12 05:29:01;;;;;;;0.40;0.30;;;;;;;-0.09;97.85;102790.88;5034684;28;20454;-74
2022/02/12 05:31:28;;;;;;;0.40;0.30;;;;;;;-0.15;98.03;102791.59;5034381;28;20968;-74
2022/02/12 05:33:55;;;;;;;0.40;0.30;;;;;;;-0.21;97.31;102789.63;5034654;28;20447;-74
2022/02/12 05:36:21;;;;;;;0.40;0.30;;;;;;;-0.20;96.94;102793.94;5034590;28;20467;-72
2022/02/12 05:38:48;;;;;;;0.40;0.30;;;;;;;-0.17;97.47;102797.09;5034617;28;20439;-74
2022/02/12 05:41:15;;;;;;;0.40;0.30;;;;;;;-0.11;97.87;102804.38;5034145;28;20439;-72
2022/02/12 05:43:43;;;;;;;0.40;0.30;;;;;;;-0.11;97.80;102792.91;5034488;28;20447;-73
2022/02/12 05:46:11;;;;;;;0.40;0.30;;;;;;;-0.16;97.42;102784.59;5034325;28;20501;-73
2022/02/12 05:48:38;;;;;;;0.50;0.30;;;;;;;-0.12;97.81;102791.25;5034034;28;20490;-73
2022/02/12 05:51:05;;;;;;;0.40;0.30;;;;;;;-0.20;97.15;102788.63;5034180;28;20487;-73
2022/02/12 05:53:32;;;;;;;0.40;0.30;;;;;;;-0.30;96.71;102787.00;5034213;28;20435;-73
2022/02/12 05:55:58;;;;;;;0.40;0.30;;;;;;;-0.27;96.81;102791.13;5034133;28;20474;-73
2022/02/12 05:58:25;;;;;;;0.40;0.30;;;;;;;-0.20;96.63;102800.09;5034159;28;20447;-73
2022/02/12 06:00:51;;;;;;;0.40;0.30;;;;;;;-0.34;95.68;102799.00;5034074;28;20449;-72
2022/02/12 06:03:17;;;;;;;0.40;0.30;;;;;;;-0.34;96.71;102793.69;5033987;28;20446;-73
2022/02/12 06:05:46;;;;;;;0.40;0.30;;;;;;;-0.35;97.09;102792.03;5034026;28;20454;-73
2022/02/12 06:08:12;;;;;;;0.40;0.30;;;;;;;-0.29;95.78;102788.66;5033812;28;20506;-73
2022/02/12 06:10:39;;;;;;;0.40;0.30;;;;;;;-0.38;96.65;102783.56;5033875;28;20517;-73
2022/02/12 06:13:05;;;;;;;0.40;0.30;;;;;;;-0.42;97.27;102795.56;5033904;28;20438;-73
2022/02/12 06:15:35;;;;;;;0.40;0.30;;;;;;;-0.49;97.89;102794.56;5033790;28;20445;-73
2022/02/12 06:18:02;;;;;;;0.40;0.30;;;;;;;-0.56;97.26;102794.44;5033805;28;20467;-73
2022/02/12 06:20:29;;;;;;;0.40;0.30;;;;;;;-0.55;96.74;102788.13;5033763;28;20442;-72
2022/02/12 06:22:58;;;;;;;0.40;0.30;;;;;;;-0.70;96.84;102795.16;5033710;28;20443;-73
2022/02/12 06:25:25;;;;;;;0.40;0.30;;;;;;;-0.66;96.95;102804.47;5033748;28;20446;-73
2022/02/12 06:27:51;;;;;;;0.40;0.30;;;;;;;-0.64;96.49;102803.28;5033563;28;20463;-73
2022/02/12 06:30:18;;;;;;;0.40;0.30;;;;;;;-0.61;96.04;102804.78;5033567;28;20549;-73
2022/02/12 06:32:44;;;;;;;0.40;0.30;;;;;;;-0.68;96.09;102806.47;5033628;28;20443;-73
2022/02/12 06:35:10;;;;;;;0.40;0.30;;;;;;;-0.72;94.74;102794.50;5033583;28;20443;-76
2022/02/12 06:37:37;;;;;;;0.40;0.30;;;;;;;-0.74;94.60;102796.50;5033433;28;20475;-73
2022/02/12 06:40:06;;;;;;;0.40;0.30;;;;;;;-0.66;95.35;102809.78;5033132;28;20983;-73
2022/02/12 06:42:32;;;;;;;0.40;0.30;;;;;;;-0.68;95.08;102815.28;5033515;28;20469;-73
2022/02/12 06:44:59;;;;;;;0.40;0.30;;;;;;;-0.83;94.68;102822.31;5033474;28;20450;-70
2022/02/12 06:47:25;;;;;;;0.40;0.30;;;;;;;-0.88;94.96;102820.16;5033364;28;20845;-73
2022/02/12 06:49:52;;;;;;;0.40;0.30;;;;;;;-1.03;95.56;102819.16;5033379;28;20490;-73
2022/02/12 06:52:19;;;;;;;0.40;0.30;;;;;;;-1.04;95.85;102820.19;5033381;28;20458;-73
2022/02/12 06:54:45;;;;;;;0.40;0.27;;;;;;;-0.95;96.25;102810.34;5032355;28;20944;-73
2022/02/12 06:57:13;;;;;;;0.40;0.30;;;;;;;-0.80;96.46;102804.19;5032891;28;20467;-72
2022/02/12 06:59:39;;;;;;;0.40;0.30;;;;;;;-0.65;96.56;102814.09;5033298;28;20440;-71
2022/02/12 07:02:06;;;;;;;0.40;0.30;;;;;;;-0.57;97.59;102809.59;5032851;28;20945;-71
2022/02/12 07:04:32;;;;;;;0.40;0.30;;;;;;;-0.48;97.84;102813.06;5033220;28;20462;-71
2022/02/12 07:06:59;;;;;;;0.40;0.30;;;;;;;-0.61;97.56;102802.13;5034105;28;21026;-71
2022/02/12 07:09:25;;;;;;;0.40;0.30;;;;;;;-0.49;97.63;102818.53;5033372;28;20439;-71
2022/02/12 07:11:52;;;;;;;0.40;0.30;;;;;;;-0.52;98.62;102807.25;5032983;28;20440;-71
2022/02/12 07:14:20;;;;;;;0.40;0.30;;;;;;;-0.51;98.24;102810.72;5032790;28;20941;-72
2022/02/12 07:16:46;;;;;;;0.40;0.30;;;;;;;-0.50;97.67;102815.03;5033062;28;20469;-71
2022/02/12 07:19:13;;;;;;;0.40;0.30;;;;;;;-0.39;97.63;102821.84;5033039;28;20443;-72
2022/02/12 07:21:39;;;;;;;0.40;0.30;;;;;;;-0.28;98.68;102814.28;5033079;28;20439;-72
2022/02/12 07:24:06;;;;;;;0.40;0.30;;;;;;;-0.21;98.89;102814.44;5032583;28;20443;-72
2022/02/12 07:26:33;;;;;;;0.40;0.30;;;;;;;-0.20;99.03;102817.91;5032903;28;20470;-72
2022/02/12 07:28:59;;;;;;;0.40;0.30;;;;;;;-0.16;99.27;102816.56;5032712;28;20443;-72
2022/02/12 07:31:27;;;;;;;0.77;0.77;;;;;;;-0.04;99.55;102820.50;5032520;28;20891;-72
2022/02/12 07:33:53;;;;;;;0.40;0.30;;;;;;;-0.02;100.00;102821.97;5032863;28;20454;-72
2022/02/12 07:36:20;;;;;;;0.40;0.30;;;;;;;0.06;100.00;102825.59;5032699;28;20475;-72
2022/02/12 07:38:46;;;;;;;0.40;0.30;;;;;;;0.01;99.93;102827.97;5032848;28;20489;-72
2022/02/12 07:41:16;;;;;;;0.40;0.30;;;;;;;0.13;100.00;102832.69;5032843;28;20443;-72
2022/02/12 07:43:43;;;;;;;0.40;0.30;;;;;;;0.23;100.00;102837.81;5033087;28;20450;-72
2022/02/12 07:46:09;;;;;;;0.40;0.30;;;;;;;0.25;100.00;102833.97;5032694;28;20438;-72
2022/02/12 07:48:37;;;;;;;0.40;0.30;;;;;;;0.34;100.00;102839.25;5032745;28;20451;-72
2022/02/12 07:51:04;;;;;;;0.50;0.43;;;;;;;0.39;100.00;102834.19;5032662;28;20483;-72
2022/02/12 07:53:30;;;;;;;0.40;0.30;;;;;;;0.44;100.00;102831.81;5032741;28;20440;-72
2022/02/12 07:55:57;;;;;;;0.40;0.30;;;;;;;0.46;100.00;102832.50;5032467;28;20453;-74
2022/02/12 07:58:23;;;;;;;0.40;0.30;;;;;;;0.51;100.00;102824.78;5032940;28;20439;-70
2022/02/12 08:00:49;;;;;;;0.40;0.30;;;;;;;0.55;100.00;102818.09;5032707;28;20462;-73
2022/02/12 08:03:16;;;;;;;0.40;0.30;;;;;;;0.57;100.00;102817.91;5032524;28;20483;-74
2022/02/12 08:05:44;;;;;;;0.40;0.30;;;;;;;0.65;100.00;102820.50;5034838;28;20451;-69
2022/02/12 08:08:10;;;;;;;0.40;0.30;;;;;;;0.66;100.00;102808.81;5036056;28;20520;-74
2022/02/12 08:13:21;;;;;;;0.40;0.30;;;;;;;0.60;99.72;102817.56;5036016;28;20406;-73
2022/02/12 08:15:47;;;;;;;0.40;0.20;;;;;;;0.69;100.00;102822.63;5035741;28;20963;-73
2022/02/12 08:18:14;;;;;;;0.40;0.20;;;;;;;0.83;99.85;102825.53;5035937;28;20463;-73
2022/02/12 08:20:40;;;;;;;0.40;0.30;;;;;;;0.89;99.60;102822.97;5036072;28;20435;-71
2022/02/12 08:23:09;;;;;;;0.40;0.30;;;;;;;0.95;99.34;102824.06;5035768;28;20497;-72
2022/02/12 08:25:36;;;;;;;0.40;0.30;;;;;;;1.00;99.54;102816.34;5035694;28;20883;-70
2022/02/12 08:28:02;;;;;;;0.40;0.30;;;;;;;1.09;99.52;102815.25;5035574;28;21034;-70
2022/02/12 08:30:29;;;;;;;0.40;0.30;;;;;;;1.10;99.03;102819.56;5035586;28;20487;-73
2022/02/12 08:32:55;;;;;;;0.40;0.30;;;;;;;1.13;99.45;102813.88;5035612;28;20447;-73
2022/02/12 08:35:22;;;;;;;0.40;0.30;;;;;;;1.23;98.74;102819.78;5035723;28;20438;-72
2022/02/12 08:37:48;;;;;;;0.40;0.30;;;;;;;1.26;97.83;102808.75;5035629;28;20522;-72
2022/02/12 08:40:19;;;;;;;0.40;0.30;;;;;;;1.38;98.16;102805.63;5035693;28;20534;-74
2022/02/12 08:42:45;;;;;;;0.40;0.30;;;;;;;1.46;97.99;102818.84;5035950;28;20432;-74
2022/02/12 08:45:12;;;;;;;2.40;2.30;;;;;;;1.49;97.75;102813.16;5035534;28;20469;-72
2022/02/12 08:47:38;;;;;;;0.40;0.30;;;;;;;1.48;98.05;102817.66;5034953;28;20494;-74
2022/02/12 08:50:08;;;;;;;0.63;0.63;;;;;;;1.59;98.00;102827.03;5035323;28;20451;-74
2022/02/12 08:52:34;;;;;;;0.40;0.30;;;;;;;1.72;97.89;102823.72;5035367;28;20446;-74
2022/02/12 08:55:01;;;;;;;0.40;0.30;;;;;;;1.76;96.63;102812.47;5035346;28;20439;-74
2022/02/12 08:57:29;;;;;;;0.40;0.20;;;;;;;1.84;96.80;102821.41;5035196;28;20459;-74
2022/02/12 08:59:55;;;;;;;0.40;0.30;;;;;;;1.89;96.15;102817.13;5035188;28;20894;-74
2022/02/12 09:02:21;;;;;;;0.40;0.30;;;;;;;1.97;95.79;102816.22;5035426;28;20436;-74
2022/02/12 09:04:48;;;;;;;0.40;0.30;;;;;;;2.00;95.36;102816.66;5035091;28;20451;-74
2022/02/12 09:07:14;;;;;;;0.40;0.30;;;;;;;2.06;95.13;102808.91;5034646;28;20475;-73
2022/02/12 09:09:42;;;;;;;0.40;0.20;;;;;;;2.15;94.97;102807.75;5035018;28;20497;-74
2022/02/12 09:12:09;;;;;;;0.40;0.30;;;;;;;2.20;94.99;102822.22;5034649;28;20486;-74
2022/02/12 09:14:37;;;;;;;0.40;0.30;;;;;;;2.31;93.94;102834.28;5034909;28;20454;-74
2022/02/12 09:17:05;;;;;;;0.40;0.30;;;;;;;2.38;93.10;102820.94;5034069;28;20459;-74
2022/02/12 09:19:32;;;;;;;0.40;0.30;;;;;;;2.45;92.54;102821.84;5034827;28;20542;-74
2022/02/12 09:21:58;;;;;;;0.40;0.30;;;;;;;2.53;91.74;102829.75;5034742;28;20506;-74
2022/02/12 09:24:24;;;;;;;0.40;0.30;;;;;;;2.58;91.41;102819.28;5034666;28;20447;-73
2022/02/12 09:26:51;;;;;;;0.50;0.50;;;;;;;2.67;90.68;102820.81;5034264;28;21006;-73
2022/02/12 09:29:17;;;;;;;0.40;0.30;;;;;;;2.74;89.70;102819.00;5034638;28;20523;-73
2022/02/12 09:31:45;;;;;;;0.40;0.30;;;;;;;2.82;89.16;102810.00;5034732;28;20479;-74
2022/02/12 09:34:12;;;;;;;0.40;0.20;;;;;;;2.87;89.57;102807.59;5034517;28;20450;-74
2022/02/12 09:36:39;;;;;;;0.40;0.20;;;;;;;2.92;88.77;102799.81;5034457;28;20463;-74
2022/02/12 09:39:05;;;;;;;0.40;0.30;;;;;;;2.99;89.05;102805.22;5034724;28;20439;-73
2022/02/12 09:41:32;;;;;;;0.40;0.30;;;;;;;3.05;88.79;102804.41;5034322;28;20493;-73
2022/02/12 09:43:58;;;;;;;0.40;0.20;;;;;;;3.11;87.87;102798.28;5034460;28;20546;-73
2022/02/12 09:46:52;;;;;;;0.40;0.20;;;;;;;3.17;87.52;102799.34;5034574;28;20513;-74
2022/02/12 09:49:19;;;;;;;0.40;0.20;;;;;;;3.25;86.22;102796.53;5034437;28;20781;-74
2022/02/12 09:51:46;;;;;;;0.40;0.30;;;;;;;3.28;84.05;102799.63;5034226;28;20569;-73
2022/02/12 09:54:13;;;;;;;0.40;0.30;;;;;;;3.36;83.86;102798.63;5033944;28;20454;-73
2022/02/12 09:56:40;;;;;;;0.40;0.23;;;;;;;3.45;84.56;102799.28;5034155;28;20455;-73
2022/02/12 09:59:06;;;;;;;0.40;0.20;;;;;;;3.48;82.27;102799.72;5034156;28;20824;-73
2022/02/12 10:01:33;;;;;;;3.50;3.30;;;;;;;3.54;83.23;102792.72;5034064;28;20443;-73
2022/02/12 10:04:00;;;;;;;0.40;0.20;;;;;;;3.59;83.53;102784.94;5033796;28;20999;-73
2022/02/12 10:06:41;;;;;;;0.40;0.30;;;;;;;3.66;81.93;102785.78;5033730;28;20486;-73
2022/02/12 10:09:07;;;;;;;0.40;0.20;;;;;;;3.70;80.29;102780.84;5034048;28;20449;-74
2022/02/12 10:11:42;;;;;;;0.40;0.27;;;;;;;3.78;80.29;102791.41;5033317;28;21063;-73
2022/02/12 10:14:10;;;;;;;0.40;0.30;;;;;;;3.85;80.20;102794.94;5033885;28;20445;-73
2022/02/12 10:16:54;;;;;;;0.40;0.30;;;;;;;3.89;79.59;102787.31;5033644;28;20478;-72
2022/02/12 10:19:30;;;;;;;0.40;0.30;;;;;;;3.96;79.50;102786.31;5033715;28;20909;-73
2022/02/12 10:22:11;;;;;;;0.40;0.30;;;;;;;4.01;78.68;102780.34;5034083;28;20435;-73
2022/02/12 10:24:50;;;;;;;0.40;0.30;;;;;;;4.03;78.39;102775.59;5033783;28;20427;-73
2022/02/12 10:27:17;;;;;;;0.40;0.20;;;;;;;4.11;78.04;102780.75;5033574;28;20482;-73
2022/02/12 10:29:45;;;;;;;0.40;0.20;;;;;;;4.14;77.85;102785.72;5032855;28;20439;-73
2022/02/12 10:32:12;;;;;;;0.40;0.30;;;;;;;4.24;76.94;102779.97;5033518;28;20573;-73
2022/02/12 10:34:43;;;;;;;0.40;0.30;;;;;;;4.28;76.47;102784.72;5033583;28;20435;-73
2022/02/12 10:37:10;;;;;;;0.40;0.30;;;;;;;4.30;75.92;102771.94;5033515;28;20517;-73
2022/02/12 10:39:48;;;;;;;0.40;0.30;;;;;;;4.40;76.45;102776.06;5033774;28;20439;-73
2022/02/12 10:42:16;;;;;;;0.40;0.30;;;;;;;4.49;74.77;102782.88;5033249;28;20513;-73
2022/02/12 10:44:43;;;;;;;0.40;0.30;;;;;;;4.49;73.32;102777.50;5033412;28;20435;-73
2022/02/12 10:47:11;;;;;;;0.40;0.30;;;;;;;4.54;73.97;102757.06;5033518;28;20487;-73
2022/02/12 10:49:39;;;;;;;0.40;0.30;;;;;;;4.63;73.45;102746.13;5033069;28;20959;-72
2022/02/12 10:52:06;;;;;;;0.40;0.20;;;;;;;4.74;73.16;102742.81;5033500;28;20479;-72
2022/02/12 10:54:40;;;;;;;0.40;0.30;;;;;;;4.87;73.89;102750.00;5033179;28;20519;-72
2022/02/12 10:57:07;;;;;;;0.40;0.30;;;;;;;4.98;72.59;102744.84;5033222;28;20470;-72
2022/02/12 10:59:36;;;;;;;0.40;0.20;;;;;;;5.11;73.26;102729.72;5032878;28;20807;-72
2022/02/12 11:02:06;;;;;;;0.40;0.30;;;;;;;5.17;69.81;102731.56;5033211;28;20443;-72
2022/02/12 11:04:35;;;;;;;0.40;0.30;;;;;;;5.24;70.01;102730.50;5033219;28;20430;-72
2022/02/12 11:07:05;;;;;;;0.40;0.30;;;;;;;5.32;68.60;102724.06;5032948;28;20483;-72
2022/02/12 11:09:32;;;;;;;0.40;0.30;;;;;;;5.40;69.44;102717.63;5033260;28;20449;-72
2022/02/12 11:12:03;;;;;;;0.40;0.20;;;;;;;5.52;68.74;102722.09;5033029;28;20486;-72
2022/02/12 11:14:32;;;;;;;0.40;0.30;;;;;;;5.60;67.23;102712.16;5033106;28;20459;-72
2022/02/12 11:17:02;;;;;;;0.40;0.20;;;;;;;5.71;68.26;102703.41;5033004;28;20467;-72
2022/02/12 11:19:29;;;;;;;0.40;0.30;;;;;;;5.80;68.68;102715.56;5032537;28;20960;-71
2022/02/12 11:21:56;;;;;;;0.40;0.30;;;;;;;5.92;69.00;102699.59;5032930;28;20439;-72
2022/02/12 11:24:36;;;;;;;0.40;0.20;;;;;;;5.97;66.45;102703.25;5032569;28;20454;-72
2022/02/12 11:27:16;;;;;;;0.40;0.30;;;;;;;6.04;66.00;102703.22;5032865;28;20466;-72
2022/02/12 11:29:44;;;;;;;0.40;0.20;;;;;;;6.02;67.39;102710.66;5032970;28;20454;-72
2022/02/12 11:32:13;;;;;;;0.40;0.30;;;;;;;6.00;66.94;102692.06;5032836;28;20541;-72
2022/02/12 11:34:44;;;;;;;0.40;0.20;;;;;;;5.96;65.37;102700.78;5032871;28;20467;-72
2022/02/12 11:37:15;;;;;;;0.40;0.30;;;;;;;6.15;64.14;102686.34;5032769;28;20936;-72
2022/02/12 11:40:11;;;;;;;0.40;0.30;;;;;;;6.56;59.89;102688.50;5033674;28;20848;-72